Time;durP1;ratioP1;P1;durP2;ratioP2;P2;SDS_P1;SDS_P2;PMS_P1;PMS_P2;Temp;Humidity;BMP_temperature;BMP_pressure;BME280_temperature;BME280_humidity;BME280_pressure;Samples;Min_cycle;Max_cycle;Signal;HPM_P1;HPM_P2
2022/08/15 00:00:36;;;;;;;6.03;2.40;;;;;;;21.07;71.12;95844.25;5017915;28;20057;-64
2022/08/15 00:03:05;;;;;;;5.70;2.60;;;;;;;21.05;70.74;95841.16;5014443;28;20033;-63
2022/08/15 00:05:33;;;;;;;7.25;2.38;;;;;;;21.00;70.50;95839.75;4994218;28;20567;-64
2022/08/15 00:07:59;;;;;;;5.80;3.00;;;;;;;21.04;70.38;95839.63;5020128;28;20407;-65
2022/08/15 00:10:25;;;;;;;6.13;2.63;;;;;;;20.95;69.99;95837.56;5016462;28;20045;-65
2022/08/15 00:12:50;;;;;;;4.28;2.70;;;;;;;21.11;68.78;95845.69;5021423;28;20513;-64
2022/08/15 00:15:18;;;;;;;6.97;2.70;;;;;;;21.13;68.49;95851.56;5015731;28;20049;-65
2022/08/15 00:17:45;;;;;;;7.88;2.60;;;;;;;21.11;68.88;95847.69;5022927;28;20038;-63
2022/08/15 00:20:11;;;;;;;6.68;2.55;;;;;;;21.09;69.00;95841.81;5016011;28;20884;-63
2022/08/15 00:22:48;;;;;;;9.82;2.38;;;;;;;21.02;69.63;95844.88;5020296;28;20085;-66
2022/08/15 00:25:16;;;;;;;10.10;3.67;;;;;;;20.99;69.88;95843.75;5016334;28;20093;-65
2022/08/15 00:27:42;;;;;;;6.57;2.78;;;;;;;21.00;70.51;95836.97;5004729;28;20130;-66
2022/08/15 00:30:08;;;;;;;9.07;2.75;;;;;;;21.01;70.75;95838.50;5016359;28;20439;-65
2022/08/15 00:32:36;;;;;;;4.53;2.40;;;;;;;20.96;71.69;95839.13;5020811;28;20088;-66
2022/08/15 00:35:35;;;;;;;6.38;2.60;;;;;;;21.03;72.34;95844.41;5019420;28;20038;-63
2022/08/15 00:37:55;;;;;;;9.03;2.77;;;;;;;20.93;73.72;95840.78;5020193;28;20083;-66
2022/08/15 00:40:24;;;;;;;11.75;2.47;;;;;;;20.96;73.66;95851.03;5014219;28;20042;-66
2022/08/15 00:42:50;;;;;;;5.90;2.47;;;;;;;20.99;73.80;95855.69;5024007;28;20037;-67
2022/08/15 00:45:16;;;;;;;4.90;2.67;;;;;;;21.02;73.27;95861.56;5017528;28;20037;-67
2022/08/15 00:47:42;;;;;;;7.13;2.85;;;;;;;20.95;73.67;95868.94;5019981;28;20046;-67
2022/08/15 00:50:11;;;;;;;7.32;2.78;;;;;;;20.98;73.41;95858.94;5015151;28;20043;-67
2022/08/15 00:52:36;;;;;;;7.50;2.50;;;;;;;21.03;73.35;95863.91;5019151;28;20132;-66
2022/08/15 00:55:10;;;;;;;6.38;2.67;;;;;;;21.04;73.63;95867.47;5020458;28;20133;-64
2022/08/15 00:57:41;;;;;;;5.20;2.78;;;;;;;20.95;74.12;95866.16;5018891;28;20045;-65
2022/08/15 01:00:14;;;;;;;6.78;3.00;;;;;;;20.84;77.09;95876.94;5013664;28;20065;-66
2022/08/15 01:02:40;;;;;;;6.38;2.60;;;;;;;20.84;77.70;95860.22;5020404;28;20557;-66
2022/08/15 01:05:09;;;;;;;9.65;3.53;;;;;;;20.72;80.31;95872.97;4998405;28;20584;-66
2022/08/15 01:07:35;;;;;;;8.27;3.35;;;;;;;20.73;81.62;95871.75;5026123;28;20050;-65
2022/08/15 01:10:02;;;;;;;8.50;2.97;;;;;;;20.44;86.51;95877.56;5026376;28;20086;-65
2022/08/15 01:12:27;;;;;;;9.32;3.30;;;;;;;20.29;89.11;95882.06;5016974;28;20045;-67
2022/08/15 01:14:57;;;;;;;11.00;3.08;;;;;;;20.24;90.52;95886.97;5000393;28;20045;-65
2022/08/15 01:17:25;;;;;;;8.80;3.55;;;;;;;20.17;90.86;95898.34;5012653;28;20147;-65
2022/08/15 01:19:56;;;;;;;6.22;3.38;;;;;;;20.18;90.39;95893.56;5017483;28;20138;-65
2022/08/15 01:22:41;;;;;;;5.32;2.90;;;;;;;19.95;91.48;95912.19;5014125;28;20110;-65
2022/08/15 01:25:09;;;;;;;8.13;3.08;;;;;;;20.02;91.62;95911.97;5014876;28;20067;-65
2022/08/15 01:27:43;;;;;;;10.23;3.38;;;;;;;20.03;93.27;95919.06;5017643;28;20405;-65
2022/08/15 01:30:13;;;;;;;6.30;2.92;;;;;;;19.82;97.35;95917.75;5000247;28;20053;-65
2022/08/15 01:32:38;;;;;;;8.82;3.40;;;;;;;19.91;98.19;95914.31;5037109;28;20045;-65
2022/08/15 01:35:04;;;;;;;8.07;3.13;;;;;;;19.78;100.00;95928.22;5024381;28;20041;-64
2022/08/15 01:37:31;;;;;;;7.90;2.90;;;;;;;19.71;100.00;95928.41;5018865;28;20042;-64
2022/08/15 01:40:03;;;;;;;6.88;3.35;;;;;;;19.61;100.00;95926.78;5024682;28;20052;-65
2022/08/15 01:42:41;;;;;;;9.90;3.70;;;;;;;19.66;100.00;95923.41;5030744;28;20045;-65
2022/08/15 01:45:18;;;;;;;10.80;3.65;;;;;;;19.60;100.00;95930.75;5025692;28;20045;-66
2022/08/15 01:47:57;;;;;;;8.18;4.00;;;;;;;19.38;100.00;95934.22;5019055;28;20133;-64
2022/08/15 01:50:29;;;;;;;9.02;4.32;;;;;;;19.27;100.00;95936.53;5014944;28;20041;-66
2022/08/15 01:53:23;;;;;;;9.02;4.28;;;;;;;19.23;100.00;95936.66;5018038;28;20046;-66
2022/08/15 01:56:06;;;;;;;9.07;4.30;;;;;;;19.16;100.00;95934.09;5018917;28;20041;-66
2022/08/15 01:58:38;;;;;;;7.30;3.92;;;;;;;19.02;100.00;95926.94;5012138;28;20069;-66
2022/08/15 02:01:08;;;;;;;10.88;4.38;;;;;;;18.91;100.00;95930.03;5027579;28;20059;-65
2022/08/15 02:03:34;;;;;;;;;;;;;;;18.72;100.00;95925.41;5025943;28;20664;-65
2022/08/15 02:06:13;;;;;;;10.95;4.65;;;;;;;18.50;100.00;95930.78;5019992;28;19913;-66
2022/08/15 02:08:40;;;;;;;7.90;4.40;;;;;;;18.38;100.00;95926.72;5019386;28;20095;-66
2022/08/15 02:11:19;;;;;;;8.98;4.85;;;;;;;18.40;100.00;95929.06;5015222;28;20127;-66
2022/08/15 02:13:47;;;;;;;10.90;4.60;;;;;;;18.44;100.00;95929.72;5018843;28;20065;-66
2022/08/15 02:16:17;;;;;;;10.55;4.80;;;;;;;18.39;100.00;95925.50;5015527;28;20486;-65
2022/08/15 02:18:43;;;;;;;;;;;;;;;18.66;100.00;95924.41;5024225;28;20048;-64
2022/08/15 02:21:09;;;;;;;7.63;4.28;;;;;;;18.85;100.00;95928.22;5018111;28;19924;-65
2022/08/15 02:23:35;;;;;;;9.05;4.47;;;;;;;18.82;100.00;95931.91;5021037;28;20042;-64
2022/08/15 02:26:04;;;;;;;13.95;4.53;;;;;;;18.85;100.00;95951.22;5021241;28;20042;-65
2022/08/15 02:28:30;;;;;;;8.43;4.25;;;;;;;18.73;100.00;95947.16;5019846;28;20137;-65
2022/08/15 02:30:56;;;;;;;9.75;4.20;;;;;;;18.63;100.00;95948.22;5022104;28;20095;-66
2022/08/15 02:33:22;;;;;;;7.97;4.13;;;;;;;18.47;100.00;95949.03;5015412;28;20102;-66
2022/08/15 02:35:48;;;;;;;8.82;4.40;;;;;;;18.43;100.00;95948.38;5010188;28;20045;-66
2022/08/15 02:38:14;;;;;;;11.05;4.45;;;;;;;18.28;100.00;95950.75;5015435;28;20041;-66
2022/08/15 02:40:40;;;;;;;8.10;4.20;;;;;;;17.81;100.00;95942.00;5020583;28;20073;-67
2022/08/15 02:43:09;;;;;;;8.68;5.05;;;;;;;17.44;100.00;95939.28;5013630;28;20073;-66
2022/08/15 02:45:38;;;;;;;13.97;5.37;;;;;;;17.13;100.00;95939.56;5023316;28;20510;-67
2022/08/15 02:48:10;;;;;;;15.63;5.38;;;;;;;16.96;100.00;95932.44;5021865;28;20486;-66
2022/08/15 02:50:37;;;;;;;8.18;5.72;;;;;;;16.95;100.00;95928.13;5021066;28;20045;-66
2022/08/15 02:53:15;;;;;;;11.80;5.80;;;;;;;17.10;100.00;95937.66;5011017;28;20047;-67
2022/08/15 02:55:45;;;;;;;9.40;5.05;;;;;;;17.46;100.00;95939.63;5019974;28;20095;-66
2022/08/15 02:58:12;;;;;;;8.80;5.50;;;;;;;17.56;100.00;95929.53;5014860;28;20073;-66
2022/08/15 03:00:41;;;;;;;9.07;5.05;;;;;;;17.67;100.00;95918.97;5004954;28;20068;-66
2022/08/15 03:03:09;;;;;;;10.98;5.10;;;;;;;17.83;100.00;95934.81;5018599;28;20041;-67
2022/08/15 03:05:38;;;;;;;9.50;4.85;;;;;;;17.86;100.00;95927.66;5024664;28;20045;-67
2022/08/15 03:08:04;;;;;;;11.60;5.20;;;;;;;17.84;100.00;95932.81;5021676;28;20042;-67
2022/08/15 03:10:29;;;;;;;11.63;5.68;;;;;;;17.83;100.00;95934.06;5023208;28;20228;-67
2022/08/15 03:13:16;;;;;;;7.85;4.95;;;;;;;17.75;100.00;95934.22;5025008;28;20170;-67
2022/08/15 03:15:44;;;;;;;8.73;5.00;;;;;;;17.83;100.00;95936.81;5022360;28;20048;-67
2022/08/15 03:18:10;;;;;;;8.25;4.95;;;;;;;17.93;100.00;95942.13;5010098;28;20048;-67
2022/08/15 03:20:36;;;;;;;9.75;5.05;;;;;;;17.99;100.00;95945.16;5023970;28;20053;-67
2022/08/15 03:23:04;;;;;;;7.65;5.28;;;;;;;17.85;100.00;95939.94;5022212;28;20125;-67
2022/08/15 03:25:30;;;;;;;8.45;5.28;;;;;;;17.98;100.00;95946.34;5027399;28;20045;-67
2022/08/15 03:27:56;;;;;;;10.00;4.88;;;;;;;18.21;100.00;95944.63;5022862;28;20266;-66
2022/08/15 03:30:22;;;;;;;9.63;4.20;;;;;;;18.29;100.00;95940.44;5011802;28;20338;-67
2022/08/15 03:32:55;;;;;;;7.93;4.80;;;;;;;18.22;100.00;95937.84;5021905;28;20044;-66
2022/08/15 03:35:23;;;;;;;10.20;5.60;;;;;;;18.02;100.00;95932.41;5017322;28;20067;-67
2022/08/15 03:37:48;;;;;;;10.00;5.25;;;;;;;17.52;100.00;95926.06;5005638;28;20490;-67
2022/08/15 03:40:14;;;;;;;11.05;6.13;;;;;;;16.99;100.00;95915.75;5001109;28;20073;-67
2022/08/15 03:42:54;;;;;;;13.27;5.93;;;;;;;17.16;100.00;95919.38;5022803;28;20076;-66
2022/08/15 03:45:20;;;;;;;12.85;5.78;;;;;;;17.21;100.00;95918.06;5009121;28;20095;-67
2022/08/15 03:47:46;;;;;;;11.48;5.50;;;;;;;17.30;100.00;95907.16;5021677;28;20270;-66
2022/08/15 03:50:13;;;;;;;9.57;6.00;;;;;;;17.28;100.00;95928.19;5017616;28;20064;-64
2022/08/15 03:53:08;;;;;;;11.55;6.00;;;;;;;17.22;100.00;95924.38;5023489;28;20033;-66
2022/08/15 03:55:36;;;;;;;12.75;5.88;;;;;;;17.29;100.00;95913.94;5012681;28;20045;-66
2022/08/15 03:58:04;;;;;;;7.25;5.28;;;;;;;17.34;100.00;95918.16;5022392;28;20052;-66
2022/08/15 04:00:34;;;;;;;9.55;5.60;;;;;;;17.24;100.00;95914.44;5005396;28;20069;-66
2022/08/15 04:03:09;;;;;;;7.90;5.47;;;;;;;17.20;100.00;95909.00;5023109;28;20045;-66
2022/08/15 04:05:36;;;;;;;8.10;5.88;;;;;;;17.35;100.00;95912.19;5023449;28;20041;-67
2022/08/15 04:08:07;;;;;;;10.95;6.07;;;;;;;17.58;100.00;95911.28;5024172;28;20048;-66
2022/08/15 04:10:33;;;;;;;7.47;5.47;;;;;;;17.73;100.00;95908.94;5021168;28;20068;-67
2022/08/15 04:13:01;;;;;;;9.52;5.40;;;;;;;17.86;100.00;95897.19;5021352;28;20073;-66
2022/08/15 04:15:27;;;;;;;9.35;4.53;;;;;;;17.98;100.00;95899.25;5008959;28;20049;-66
2022/08/15 04:17:53;;;;;;;7.75;4.78;;;;;;;17.88;100.00;95900.31;5022877;28;20049;-66
2022/08/15 04:20:19;;;;;;;7.75;4.80;;;;;;;17.96;100.00;95891.38;4999842;28;20449;-66
2022/08/15 04:22:49;;;;;;;6.18;4.43;;;;;;;17.90;100.00;95890.34;5005468;28;20038;-66
2022/08/15 04:25:21;;;;;;;6.82;4.90;;;;;;;17.78;100.00;95899.34;5017634;28;20041;-65
2022/08/15 04:27:49;;;;;;;10.45;5.18;;;;;;;17.63;100.00;95898.13;5010421;28;20042;-66
2022/08/15 04:30:16;;;;;;;7.57;4.47;;;;;;;17.59;100.00;95898.19;5016818;28;20038;-66
2022/08/15 04:32:42;;;;;;;6.80;4.45;;;;;;;17.49;100.00;95904.78;5022483;28;20183;-66
2022/08/15 04:35:10;;;;;;;6.82;4.40;;;;;;;17.52;100.00;95907.47;5018204;28;20498;-65
2022/08/15 04:37:39;;;;;;;7.57;4.70;;;;;;;17.68;100.00;95905.91;5021794;28;20041;-66
2022/08/15 04:40:08;;;;;;;8.05;5.28;;;;;;;17.73;100.00;95916.47;5017503;28;20034;-66
2022/08/15 04:42:43;;;;;;;8.32;5.10;;;;;;;17.68;100.00;95917.78;5012285;28;20068;-65
2022/08/15 04:45:09;;;;;;;7.70;4.70;;;;;;;17.74;100.00;95929.88;4997104;28;20084;-66
2022/08/15 04:47:34;;;;;;;10.80;4.95;;;;;;;17.80;100.00;95932.91;5002223;28;20046;-67
2022/08/15 04:50:00;;;;;;;7.85;5.22;;;;;;;17.87;100.00;95932.78;5019390;28;20048;-66
2022/08/15 04:52:25;;;;;;;7.28;4.60;;;;;;;17.98;100.00;95932.50;5020232;28;20045;-66
2022/08/15 04:54:50;;;;;;;8.77;4.65;;;;;;;18.12;100.00;95929.38;5021906;28;20183;-66
2022/08/15 04:57:16;;;;;;;8.10;4.45;;;;;;;18.30;100.00;95922.59;5016667;28;20505;-66
2022/08/15 04:59:41;;;;;;;8.90;4.68;;;;;;;18.34;100.00;95921.25;5003796;28;20048;-66
2022/08/15 05:02:10;;;;;;;7.18;4.50;;;;;;;18.45;100.00;95920.97;5018111;28;20045;-66
2022/08/15 05:04:36;;;;;;;10.80;4.50;;;;;;;18.46;100.00;95924.56;5021627;28;20060;-66
2022/08/15 05:07:01;;;;;;;9.38;4.47;;;;;;;18.48;100.00;95933.97;5020940;28;20087;-65
2022/08/15 05:09:27;;;;;;;7.47;4.35;;;;;;;18.59;100.00;95932.91;5017906;28;20460;-67
2022/08/15 05:11:52;;;;;;;7.18;4.53;;;;;;;18.61;100.00;95930.47;5018359;28;20052;-66
2022/08/15 05:14:18;;;;;;;8.55;4.57;;;;;;;18.58;100.00;95937.66;5010996;28;20033;-66
2022/08/15 05:16:44;;;;;;;8.20;5.03;;;;;;;18.54;100.00;95946.06;5004411;28;20045;-66
2022/08/15 05:19:09;;;;;;;8.00;4.63;;;;;;;18.53;100.00;95944.53;5032818;28;20048;-66
2022/08/15 05:21:34;;;;;;;7.35;4.70;;;;;;;18.69;100.00;95942.91;5033705;28;20053;-64
2022/08/15 05:24:00;;;;;;;8.25;4.63;;;;;;;18.67;100.00;95940.59;5023389;28;20410;-64
2022/08/15 05:26:25;;;;;;;7.22;4.30;;;;;;;18.65;100.00;95936.69;5033145;28;20060;-64
2022/08/15 05:28:51;;;;;;;6.53;3.92;;;;;;;18.79;100.00;95936.28;5023410;28;20045;-64
2022/08/15 05:31:16;;;;;;;7.82;4.25;;;;;;;18.72;100.00;95936.50;5017389;28;20110;-66
2022/08/15 05:33:45;;;;;;;6.72;3.80;;;;;;;18.68;100.00;95935.81;5021574;28;20063;-66
2022/08/15 05:36:11;;;;;;;7.38;3.70;;;;;;;18.57;100.00;95936.13;5008495;28;20034;-65
2022/08/15 05:38:53;;;;;;;7.95;4.03;;;;;;;18.62;100.00;95938.38;5023987;28;20579;-65
2022/08/15 05:41:23;;;;;;;8.40;4.10;;;;;;;18.56;100.00;95940.09;5016368;28;20141;-66
2022/08/15 05:44:07;;;;;;;;;;;;;;;18.65;100.00;95940.25;5021546;28;20095;-66
2022/08/15 05:46:48;;;;;;;6.38;3.92;;;;;;;18.80;100.00;95935.09;5029262;28;19917;-65
2022/08/15 05:49:24;;;;;;;6.40;4.22;;;;;;;19.81;100.00;95938.44;5032045;28;20044;-65
2022/08/15 05:52:21;;;;;;;6.63;3.47;;;;;;;21.75;100.00;95936.31;5013743;28;20042;-64
2022/08/15 05:54:58;;;;;;;8.25;3.17;;;;;;;23.75;100.00;95931.59;4984234;28;20143;-64
2022/08/15 05:57:44;;;;;;;7.65;3.60;;;;;;;24.87;93.98;95931.69;5017757;28;20770;-64
2022/08/15 06:00:12;;;;;;;4.57;2.78;;;;;;;25.94;92.54;95931.44;5017281;28;20049;-65
2022/08/15 06:02:42;;;;;;;5.18;2.88;;;;;;;27.32;81.76;95936.19;5019840;28;20068;-66
2022/08/15 06:05:13;;;;;;;6.10;2.88;;;;;;;28.20;73.99;95945.03;5011309;28;20041;-64
2022/08/15 06:07:45;;;;;;;5.30;2.70;;;;;;;26.79;79.77;95940.22;5039968;28;20107;-64
2022/08/15 06:10:25;;;;;;;3.80;2.38;;;;;;;28.99;70.30;95944.59;5025872;28;20481;-62
2022/08/15 06:13:01;;;;;;;3.17;1.98;;;;;;;29.83;67.98;95943.97;5011404;28;20132;-64
2022/08/15 06:15:53;;;;;;;3.92;2.47;;;;;;;30.39;66.22;95940.28;5016116;28;20103;-62
2022/08/15 06:18:20;;;;;;;3.30;2.30;;;;;;;30.47;68.72;95949.00;5008200;28;20145;-65
2022/08/15 06:20:45;;;;;;;6.45;2.47;;;;;;;29.40;70.33;95947.00;5020441;28;20045;-66
2022/08/15 06:23:24;;;;;;;7.60;2.60;;;;;;;30.35;62.34;95950.31;5006877;28;20049;-65
2022/08/15 06:26:20;;;;;;;6.35;2.33;;;;;;;31.04;57.71;95958.00;5020540;28;20292;-63
2022/08/15 06:28:46;;;;;;;7.22;2.47;;;;;;;31.57;52.70;95950.25;5009768;28;20041;-65
2022/08/15 06:32:04;;;;;;;3.97;2.22;;;;;;;30.23;61.12;95941.84;5015389;28;20097;-63
2022/08/15 06:34:44;;;;;;;5.10;2.07;;;;;;;30.98;52.98;95931.84;4991412;28;20053;-64
2022/08/15 06:37:31;;;;;;;5.22;2.55;;;;;;;30.94;50.61;95932.13;5002908;28;20284;-64
2022/08/15 06:40:22;;;;;;;8.25;2.78;;;;;;;28.53;61.06;95932.41;5016573;28;20042;-63
2022/08/15 06:42:47;;;;;;;6.10;2.40;;;;;;;28.29;62.65;95930.00;5021283;28;20045;-63
2022/08/15 06:45:26;;;;;;;6.10;2.33;;;;;;;29.36;58.65;95921.88;5012275;28;20454;-64
2022/08/15 06:47:58;;;;;;;5.93;2.67;;;;;;;29.42;54.29;95930.34;5024269;28;20049;-64
2022/08/15 06:50:30;;;;;;;6.15;3.15;;;;;;;28.73;57.49;95916.63;5019233;28;20053;-62
2022/08/15 06:53:22;;;;;;;5.55;2.60;;;;;;;28.98;54.69;95915.66;5005748;28;20466;-65
2022/08/15 06:55:53;;;;;;;5.22;2.47;;;;;;;29.32;53.34;95912.91;5030649;28;20069;-62
2022/08/15 06:58:45;;;;;;;5.38;2.60;;;;;;;27.81;57.62;95911.75;5001396;28;20052;-63
2022/08/15 07:01:29;;;;;;;8.00;3.08;;;;;;;27.51;59.17;95908.47;5015444;28;20045;-64
2022/08/15 07:04:31;;;;;;;7.65;2.97;;;;;;;28.84;57.30;95910.25;5014597;28;20128;-64
2022/08/15 07:07:12;;;;;;;5.82;2.22;;;;;;;29.48;53.58;95902.91;5030139;28;20143;-61
2022/08/15 07:09:46;;;;;;;4.80;2.47;;;;;;;29.57;52.39;95906.75;5019336;28;20041;-64
2022/08/15 07:12:36;;;;;;;4.00;2.45;;;;;;;28.40;54.15;95915.19;5017627;28;20348;-63
2022/08/15 07:15:16;;;;;;;5.18;3.00;;;;;;;28.48;55.80;95899.34;5014603;28;20613;-63
2022/08/15 07:17:48;;;;;;;6.35;3.33;;;;;;;27.79;57.62;95910.72;5023538;28;20800;-63
2022/08/15 07:20:13;;;;;;;7.68;3.47;;;;;;;28.08;56.65;95901.22;5019329;28;20041;-63
2022/08/15 07:22:39;;;;;;;7.13;2.80;;;;;;;27.02;59.41;95907.50;5013931;28;20561;-63
2022/08/15 07:25:13;;;;;;;8.48;3.20;;;;;;;26.67;61.94;95900.00;5018115;28;20053;-62
2022/08/15 07:27:39;;;;;;;6.60;3.03;;;;;;;27.78;58.56;95909.94;5024855;28;20520;-63
2022/08/15 07:30:20;;;;;;;6.15;3.05;;;;;;;27.96;57.00;95910.84;5019108;28;20034;-64
2022/08/15 07:32:55;;;;;;;5.88;3.17;;;;;;;27.16;61.80;95908.66;5025541;28;20051;-62
2022/08/15 07:35:28;;;;;;;7.82;3.85;;;;;;;27.05;61.56;95909.34;5005356;28;20042;-63
2022/08/15 07:37:58;;;;;;;9.93;3.05;;;;;;;28.03;58.00;95907.56;5020642;28;20084;-63
2022/08/15 07:40:36;;;;;;;5.43;3.03;;;;;;;27.51;58.68;95910.50;5017859;28;20049;-62
2022/08/15 07:43:20;;;;;;;5.00;3.38;;;;;;;27.33;59.75;95903.97;5023483;28;20037;-61
2022/08/15 07:45:46;;;;;;;6.22;3.15;;;;;;;27.90;60.39;95905.19;5013362;28;20045;-63
2022/08/15 07:48:28;;;;;;;6.45;2.60;;;;;;;28.25;55.44;95911.78;5017896;28;20132;-64
2022/08/15 07:51:24;;;;;;;5.60;2.60;;;;;;;28.40;54.08;95903.94;5022237;28;20045;-62
2022/08/15 07:53:52;;;;;;;6.40;2.45;;;;;;;28.32;54.94;95914.13;5023317;28;20065;-63
2022/08/15 07:56:18;;;;;;;4.10;2.47;;;;;;;27.88;57.40;95913.34;5018515;28;20037;-63
2022/08/15 07:58:44;;;;;;;3.95;2.58;;;;;;;28.34;54.98;95909.53;5023120;28;20041;-64
2022/08/15 08:01:13;;;;;;;5.20;2.47;;;;;;;28.84;53.18;95908.19;5015399;28;20540;-64
2022/08/15 08:03:52;;;;;;;8.70;3.85;;;;;;;28.66;54.80;95905.84;5022588;28;20053;-64
2022/08/15 08:06:27;;;;;;;9.10;4.32;;;;;;;29.28;51.78;95912.41;5019115;28;20043;-62
2022/08/15 08:09:00;;;;;;;5.20;2.53;;;;;;;29.70;50.48;95909.81;5023772;28;20037;-62
2022/08/15 08:11:45;;;;;;;6.03;2.40;;;;;;;28.48;53.88;95907.03;5014927;28;20129;-64
2022/08/15 08:14:44;;;;;;;5.97;2.72;;;;;;;28.82;53.28;95910.75;5010436;28;20386;-62
2022/08/15 08:17:30;;;;;;;5.03;2.53;;;;;;;29.59;47.63;95927.53;5017559;28;20044;-60
2022/08/15 08:20:03;;;;;;;3.47;2.25;;;;;;;28.79;50.16;95912.53;5018848;28;20045;-62
2022/08/15 08:22:50;;;;;;;5.97;2.33;;;;;;;28.47;49.68;95919.56;5016068;28;20090;-62
2022/08/15 08:25:27;;;;;;;4.97;2.28;;;;;;;28.36;51.56;95909.00;5018201;28;20442;-63
2022/08/15 08:28:00;;;;;;;4.75;2.50;;;;;;;28.75;49.80;95906.38;5024085;28;20045;-62
2022/08/15 08:30:33;;;;;;;7.55;3.70;;;;;;;29.47;47.95;95894.97;5017906;28;20494;-64
2022/08/15 08:33:09;;;;;;;7.38;2.05;;;;;;;29.87;47.08;95896.50;5022043;28;20498;-63
2022/08/15 08:35:34;;;;;;;11.50;2.30;;;;;;;31.16;43.12;95899.34;5018852;28;20498;-63
2022/08/15 08:38:04;;;;;;;5.55;2.05;;;;;;;29.85;45.15;95892.66;5021269;28;20107;-63
2022/08/15 08:43:41;;;;;;;6.00;1.58;;;;;;;31.03;42.33;95888.63;5011557;28;20591;-61
2022/08/15 08:46:12;;;;;;;4.40;2.05;;;;;;;29.42;45.56;95890.84;5015865;28;20138;-63
2022/08/15 08:48:42;;;;;;;3.63;1.90;;;;;;;29.76;45.42;95895.75;5020912;28;20037;-63
2022/08/15 08:51:27;;;;;;;3.20;1.80;;;;;;;30.24;44.00;95892.53;5006569;28;20045;-64
2022/08/15 08:54:16;;;;;;;5.18;2.13;;;;;;;31.20;41.99;95894.16;5020601;28;20107;-63
2022/08/15 08:56:46;;;;;;;;;;;;;;;30.52;42.03;95897.34;5021282;28;20041;-63
2022/08/15 08:59:25;;;;;;;3.85;1.67;;;;;;;31.81;41.55;95892.91;4999611;28;19913;-64
2022/08/15 09:01:58;;;;;;;3.95;1.63;;;;;;;31.86;39.55;95891.31;5030063;28;20058;-66
2022/08/15 09:04:39;;;;;;;3.47;1.50;;;;;;;31.38;39.95;95892.75;5019184;28;20626;-64
2022/08/15 09:07:07;;;;;;;5.20;1.70;;;;;;;31.25;40.30;95891.28;5017197;28;20504;-64
2022/08/15 09:09:39;;;;;;;5.82;2.05;;;;;;;32.66;37.08;95902.56;5036603;28;20049;-61
2022/08/15 09:15:26;;;;;;;3.15;1.52;;;;;;;33.27;34.91;95900.97;5016138;28;20418;-62
2022/08/15 09:17:58;;;;;;;6.43;2.13;;;;;;;32.79;35.64;95901.88;5020274;28;20041;-64
2022/08/15 09:20:32;;;;;;;3.20;1.90;;;;;;;31.22;37.89;95894.41;5015380;28;20915;-64
2022/08/15 09:22:57;;;;;;;2.75;1.35;;;;;;;31.45;37.04;95898.59;5021057;28;20049;-65
2022/08/15 09:25:23;;;;;;;4.78;1.50;;;;;;;30.68;39.13;95893.69;5016073;28;20331;-64
2022/08/15 09:28:21;;;;;;;2.58;1.38;;;;;;;31.22;38.81;95898.00;5036543;28;20045;-65
2022/08/15 09:30:48;;;;;;;9.57;1.80;;;;;;;31.69;37.14;95894.28;5024832;28;20428;-64
2022/08/15 09:33:43;;;;;;;3.30;1.55;;;;;;;30.56;39.51;95888.59;5011573;28;20394;-64
2022/08/15 09:36:50;;;;;;;2.65;1.40;;;;;;;31.78;36.08;95899.63;4985397;28;20045;-63
2022/08/15 09:39:42;;;;;;;4.22;1.55;;;;;;;31.85;37.17;95891.84;5005264;28;20037;-63
2022/08/15 09:42:31;;;;;;;2.92;1.40;;;;;;;31.27;36.80;95881.50;4995787;28;20088;-64
2022/08/15 09:45:36;;;;;;;5.97;1.58;;;;;;;31.36;36.62;95886.84;5002326;28;20076;-63
2022/08/15 09:48:35;;;;;;;3.33;1.48;;;;;;;31.35;36.21;95879.63;5008120;28;20360;-63
2022/08/15 09:51:38;;;;;;;2.10;1.30;;;;;;;31.00;35.97;95873.47;5020287;28;20037;-63
2022/08/15 09:54:26;;;;;;;2.22;1.17;;;;;;;30.82;36.05;95874.84;5017039;28;20041;-64
2022/08/15 09:57:19;;;;;;;2.45;1.50;;;;;;;30.69;37.52;95866.94;5010863;28;20181;-61
2022/08/15 09:59:50;;;;;;;4.88;1.40;;;;;;;30.77;37.91;95852.25;5017080;28;20107;-64
2022/08/15 10:02:15;;;;;;;3.67;1.48;;;;;;;31.36;36.91;95861.38;5015547;28;20033;-65
2022/08/15 10:04:50;;;;;;;5.13;1.20;;;;;;;31.95;34.37;95859.81;5020123;28;20042;-65
2022/08/15 10:07:15;;;;;;;3.00;1.27;;;;;;;31.53;34.62;95862.03;5019423;28;20083;-63
2022/08/15 10:09:44;;;;;;;3.03;1.20;;;;;;;31.18;35.29;95860.75;5023220;28;20041;-62
2022/08/15 10:12:09;;;;;;;3.15;1.50;;;;;;;30.79;35.21;95852.50;4995379;28;20041;-64
2022/08/15 10:14:47;;;;;;;3.58;1.25;;;;;;;31.56;34.91;95849.66;5019898;28;20041;-62
2022/08/15 10:17:27;;;;;;;6.07;1.58;;;;;;;31.62;33.96;95846.75;5012462;28;20045;-64
2022/08/15 10:19:55;;;;;;;6.63;1.70;;;;;;;30.41;35.92;95849.38;5004295;28;20045;-63
2022/08/15 10:22:21;;;;;;;3.53;1.30;;;;;;;31.28;35.70;95852.72;5014542;28;20041;-63
2022/08/15 10:25:15;;;;;;;4.05;1.63;;;;;;;31.35;34.93;95851.34;5037458;28;20064;-62
2022/08/15 10:28:09;;;;;;;1.65;1.08;;;;;;;29.80;38.51;95845.44;5028582;28;20060;-63
2022/08/15 10:30:46;;;;;;;2.67;1.30;;;;;;;30.16;36.90;95843.56;5018128;28;20069;-61
2022/08/15 10:33:30;;;;;;;5.43;1.42;;;;;;;30.31;36.05;95834.75;5012646;28;20080;-65
2022/08/15 10:36:14;;;;;;;3.20;1.50;;;;;;;30.45;36.63;95838.56;5017659;28;20033;-65
2022/08/15 10:38:52;;;;;;;4.10;2.08;;;;;;;30.96;35.76;95844.72;5018948;28;20485;-64
2022/08/15 10:41:57;;;;;;;5.90;1.63;;;;;;;29.28;39.06;95844.72;5014145;28;20056;-64
2022/08/15 10:44:42;;;;;;;2.38;1.23;;;;;;;28.16;41.66;95823.47;4983971;28;20112;-64
2022/08/15 10:47:32;;;;;;;3.45;1.80;;;;;;;29.80;37.43;95825.69;4997968;28;20052;-63
2022/08/15 10:50:14;;;;;;;1.98;1.35;;;;;;;30.80;36.37;95818.06;5017639;28;20042;-62
2022/08/15 10:52:57;;;;;;;4.70;1.33;;;;;;;31.37;35.37;95820.50;5019033;28;20037;-63
2022/08/15 10:55:31;;;;;;;3.03;1.33;;;;;;;30.93;35.33;95819.56;5010216;28;20103;-64
2022/08/15 10:58:10;;;;;;;2.42;1.45;;;;;;;29.61;38.12;95814.94;5025079;28;20502;-63
2022/08/15 11:00:42;;;;;;;1.95;1.27;;;;;;;30.48;37.05;95804.38;5023294;28;20494;-61
2022/08/15 11:03:18;;;;;;;2.50;1.35;;;;;;;31.50;34.63;95811.41;5014809;28;20042;-63
2022/08/15 11:05:55;;;;;;;2.60;1.35;;;;;;;31.24;34.44;95812.59;5015291;28;20080;-63
2022/08/15 11:08:23;;;;;;;3.03;1.30;;;;;;;30.79;35.65;95804.44;5022392;28;20040;-62
2022/08/15 11:10:49;;;;;;;3.03;1.13;;;;;;;30.00;36.79;95813.31;5022206;28;20041;-63
2022/08/15 11:13:17;;;;;;;3.47;1.60;;;;;;;29.92;37.65;95808.19;5016255;28;20034;-63
2022/08/15 11:15:55;;;;;;;2.97;1.35;;;;;;;30.37;36.49;95806.50;5016572;28;20139;-63
2022/08/15 11:18:35;;;;;;;4.65;1.42;;;;;;;27.75;40.73;95795.63;5007965;28;20049;-60
2022/08/15 11:21:40;;;;;;;4.25;2.00;;;;;;;27.94;41.10;95789.59;5019271;28;20076;-63
2022/08/15 11:24:07;;;;;;;4.22;1.77;;;;;;;28.54;40.74;95781.09;5016891;28;20338;-63
2022/08/15 11:26:37;;;;;;;6.32;2.03;;;;;;;28.69;39.63;95780.88;5027069;28;20037;-63
2022/08/15 11:29:23;;;;;;;3.00;1.58;;;;;;;28.26;40.28;95786.63;5023391;28;20056;-63
2022/08/15 11:31:54;;;;;;;2.47;1.70;;;;;;;28.28;41.49;95772.81;5021776;28;20080;-62
2022/08/15 11:34:41;;;;;;;2.80;1.73;;;;;;;28.69;39.78;95773.19;5020130;28;20046;-63
2022/08/15 11:37:19;;;;;;;3.03;1.58;;;;;;;28.76;40.13;95769.84;5018667;28;20041;-63
2022/08/15 11:40:00;;;;;;;3.20;1.50;;;;;;;28.72;39.89;95763.72;5022416;28;20046;-61
2022/08/15 11:42:29;;;;;;;3.10;1.60;;;;;;;28.92;39.66;95759.13;5013708;28;20049;-65
2022/08/15 11:44:58;;;;;;;2.15;1.17;;;;;;;29.32;39.94;95757.81;5023927;28;20140;-63
2022/08/15 11:47:25;;;;;;;;;;;;;;;29.16;38.79;95750.16;5011175;28;21045;-64
2022/08/15 11:49:53;;;;;;;4.35;1.45;;;;;;;29.29;39.20;95749.59;5023454;28;19948;-64
2022/08/15 11:52:29;;;;;;;3.90;1.60;;;;;;;29.38;38.85;95749.31;5012943;28;20045;-62
2022/08/15 11:55:15;;;;;;;4.20;1.70;;;;;;;29.09;39.43;95748.56;5021395;28;20067;-64
2022/08/15 11:57:44;;;;;;;2.70;1.58;;;;;;;29.18;39.16;95741.94;5002677;28;20507;-65
2022/08/15 12:00:29;;;;;;;3.17;1.40;;;;;;;29.60;39.25;95740.03;5017359;28;20068;-65
2022/08/15 12:02:56;;;;;;;3.30;1.50;;;;;;;29.53;37.94;95741.34;5022215;28;20042;-62
2022/08/15 12:05:49;;;;;;;5.22;1.77;;;;;;;29.43;37.92;95739.34;5016032;28;20049;-63
2022/08/15 12:08:30;;;;;;;5.40;2.05;;;;;;;28.95;38.72;95735.53;5021604;28;20040;-65